ADDS METAR Data

Data at: 2117 UTC 22 May 2018

METAR for:LHUD (Szeged Arpt, --, HU)
Text:LHUD 222045Z 16011KT CAVOK 19/13 Q1018
Temperature: 19.0°C ( 66°F)
Dewpoint: 13.0°C ( 55°F) [RH = 68%]
Pressure (altimeter):30.06 inches Hg (1018.0 mb)
Winds:from the SSE (160 degrees) at 13 MPH (11 knots; 5.7 m/s)
Visibility:6 or more sm (10+ km)
Ceiling:ceiling and visibility are OK
Clouds:unknown

TAF for:LHUD (Szeged Arpt, --, HU)
Text:No data found